createdAt,value
2018-07-11T00:03:00.623Z,66.40
2018-07-11T00:05:05.189Z,66.40
2018-07-11T00:07:09.651Z,66.40
2018-07-11T00:09:14.151Z,66.50
2018-07-11T00:11:18.649Z,66.50
2018-07-11T00:13:23.194Z,66.70
2018-07-11T00:15:27.655Z,66.80
2018-07-11T00:17:32.200Z,66.90
2018-07-11T00:19:36.962Z,67.10
2018-07-11T00:21:41.533Z,67.20
2018-07-11T00:23:46.078Z,67.30
2018-07-11T00:25:50.762Z,67.20
2018-07-11T00:27:56.375Z,67.40
2018-07-11T00:30:00.944Z,67.30
2018-07-11T00:32:05.445Z,67.30
2018-07-11T00:34:09.970Z,67.40
2018-07-11T00:36:14.725Z,67.50
2018-07-11T00:38:19.470Z,67.60
2018-07-11T00:40:23.983Z,67.50
2018-07-11T00:42:28.554Z,67.50
2018-07-11T00:44:33.250Z,67.70
2018-07-11T00:46:37.807Z,67.70
2018-07-11T00:48:42.343Z,67.60
2018-07-11T00:50:55.438Z,67.70
2018-07-11T00:53:00.143Z,67.90
2018-07-11T00:55:04.699Z,67.70
2018-07-11T00:57:09.283Z,67.80
2018-07-11T00:59:23.769Z,67.90
2018-07-11T01:01:31.042Z,68.00
2018-07-11T01:03:55.069Z,68.10
2018-07-11T01:06:00.557Z,68.30
2018-07-11T01:08:07.703Z,68.00
2018-07-11T01:10:15.668Z,68.70
2018-07-11T01:12:22.850Z,68.00
2018-07-11T01:14:28.867Z,67.90
2018-07-11T01:16:37.213Z,68.00
2018-07-11T01:19:08.512Z,68.10
2018-07-11T01:21:15.428Z,68.20
2018-07-11T01:25:27.443Z,68.40
2018-07-11T01:27:35.189Z,68.30
2018-07-11T01:29:40.993Z,68.30
2018-07-11T01:31:47.332Z,68.20
2018-07-11T01:33:55.138Z,68.80
2018-07-11T01:36:02.590Z,68.40
2018-07-11T01:38:10.853Z,68.50
2018-07-11T01:40:16.707Z,68.60
2018-07-11T01:42:22.346Z,68.50
2018-07-11T01:44:29.151Z,68.40
2018-07-11T01:46:52.953Z,68.40
2018-07-11T01:49:00.959Z,68.40
2018-07-11T01:51:06.526Z,68.40
2018-07-11T01:53:14.273Z,68.40
2018-07-11T01:55:22.330Z,68.40
2018-07-11T02:01:45.439Z,68.70
2018-07-11T02:03:52.342Z,68.40
2018-07-11T02:06:01.466Z,68.40
2018-07-11T02:08:07.230Z,68.40
2018-07-11T02:10:14.101Z,68.40
2018-07-11T02:12:20.065Z,68.30
2018-07-11T02:14:26.445Z,68.20
2018-07-11T02:16:34.254Z,68.20
2018-07-11T02:18:42.396Z,69.30
2018-07-11T02:20:47.518Z,68.40
2018-07-11T02:22:54.198Z,68.50
2018-07-11T02:24:58.734Z,68.50
2018-07-11T02:29:07.663Z,68.30
2018-07-11T02:31:12.211Z,68.30
2018-07-11T02:33:17.617Z,68.50
2018-07-11T02:35:22.157Z,68.40
2018-07-11T02:37:26.630Z,68.40
2018-07-11T02:39:31.551Z,68.30
2018-07-11T02:41:36.034Z,68.30
2018-07-11T02:43:40.630Z,68.40
2018-07-11T02:45:45.148Z,68.40
2018-07-11T02:49:53.945Z,68.00
2018-07-11T02:51:58.463Z,68.00
2018-07-11T02:58:11.440Z,67.90
2018-07-11T03:00:16.024Z,67.80
2018-07-11T03:02:20.629Z,67.80
2018-07-11T03:04:25.813Z,68.00
2018-07-11T03:06:30.396Z,68.10
2018-07-11T03:08:37.922Z,68.20
2018-07-11T03:10:42.394Z,68.10
2018-07-11T03:12:46.889Z,68.20
2018-07-11T03:14:52.518Z,68.40
2018-07-11T03:16:57.762Z,68.40
2018-07-11T03:19:02.215Z,68.50
2018-07-11T03:21:06.930Z,68.50
2018-07-11T03:23:11.459Z,69.30
2018-07-11T03:25:16.091Z,68.60
2018-07-11T03:27:20.599Z,68.50
2018-07-11T03:29:25.137Z,68.60
2018-07-11T03:31:29.577Z,68.60
2018-07-11T03:33:34.080Z,68.70
2018-07-11T03:35:38.620Z,68.70
2018-07-11T03:37:43.134Z,68.70
2018-07-11T03:39:47.678Z,68.60
2018-07-11T03:41:52.202Z,68.60
2018-07-11T03:43:56.762Z,68.80
2018-07-11T03:46:01.241Z,68.70
2018-07-11T03:48:05.845Z,68.50
2018-07-11T03:52:15.306Z,69.30
2018-07-11T03:54:19.814Z,68.60
2018-07-11T03:56:24.215Z,68.60
2018-07-11T03:58:28.662Z,68.50
2018-07-11T04:00:36.206Z,68.50
2018-07-11T04:02:42.045Z,68.50
2018-07-11T04:04:49.184Z,68.60
2018-07-11T04:06:54.374Z,68.60
2018-07-11T04:11:07.777Z,68.70
2018-07-11T04:13:20.345Z,68.60
2018-07-11T04:15:27.451Z,68.60
2018-07-11T04:17:35.046Z,68.60
2018-07-11T04:19:44.968Z,68.50
2018-07-11T04:21:54.310Z,68.60
2018-07-11T04:24:01.590Z,68.40
2018-07-11T04:26:09.593Z,68.20
2018-07-11T04:28:14.275Z,68.40
2018-07-11T04:30:18.897Z,68.30
2018-07-11T04:32:23.399Z,68.60
2018-07-11T04:34:27.935Z,68.60
2018-07-11T04:36:32.870Z,68.50
2018-07-11T04:38:38.482Z,68.30
2018-07-11T04:40:43.067Z,68.60
2018-07-11T04:42:47.615Z,68.50
2018-07-11T04:44:52.161Z,68.60
2018-07-11T04:46:56.770Z,68.60
2018-07-11T04:49:01.255Z,68.60
2018-07-11T04:51:05.996Z,68.40
2018-07-11T04:53:11.586Z,68.40
2018-07-11T04:55:16.143Z,68.50
2018-07-11T04:57:21.641Z,68.60
2018-07-11T04:59:26.226Z,68.60
2018-07-11T05:01:30.975Z,68.60
2018-07-11T05:03:35.389Z,68.40
2018-07-11T05:05:39.887Z,68.40
2018-07-11T05:07:44.330Z,68.60
2018-07-11T05:09:48.797Z,68.40
2018-07-11T05:11:53.215Z,68.50
2018-07-11T05:13:58.878Z,68.50
2018-07-11T05:16:03.325Z,68.50
2018-07-11T05:18:07.821Z,68.50
2018-07-11T05:20:12.323Z,68.50
2018-07-11T05:22:16.781Z,68.60
2018-07-11T05:24:21.270Z,68.60
2018-07-11T05:26:25.779Z,68.60
2018-07-11T05:28:30.238Z,68.70
2018-07-11T05:30:34.761Z,68.80
2018-07-11T05:32:39.212Z,68.70
2018-07-11T05:34:43.842Z,68.70
2018-07-11T05:36:48.334Z,69.00
2018-07-11T05:40:57.084Z,68.60
2018-07-11T05:43:01.511Z,69.00
2018-07-11T05:45:06.075Z,68.90
2018-07-11T05:47:10.539Z,68.80
2018-07-11T05:49:14.981Z,68.80
2018-07-11T05:51:20.350Z,68.90
2018-07-11T05:53:24.904Z,69.30
2018-07-11T05:55:29.407Z,69.40
2018-07-11T05:59:38.011Z,69.60
2018-07-11T06:01:42.499Z,69.60
2018-07-11T06:03:46.946Z,69.70
2018-07-11T06:05:51.506Z,69.60
2018-07-11T06:07:56.001Z,69.20
2018-07-11T06:12:04.850Z,68.80
2018-07-11T06:14:09.370Z,68.90
2018-07-11T06:16:13.949Z,68.90
2018-07-11T06:18:18.614Z,68.90
2018-07-11T06:20:23.051Z,69.10
2018-07-11T06:26:36.105Z,69.20
2018-07-11T06:28:40.624Z,69.30
2018-07-11T06:30:45.117Z,69.00
2018-07-11T06:32:49.524Z,68.90
2018-07-11T06:34:54.895Z,68.80
2018-07-11T06:37:01.682Z,68.80
2018-07-11T06:39:06.953Z,68.90
2018-07-11T06:41:11.494Z,68.80
2018-07-11T06:43:15.962Z,68.50
2018-07-11T06:45:20.690Z,68.40
2018-07-11T06:47:28.942Z,68.50
2018-07-11T06:49:33.727Z,68.40
2018-07-11T06:51:38.287Z,68.50
2018-07-11T06:53:42.742Z,68.30
2018-07-11T06:55:48.278Z,67.90
2018-07-11T06:57:52.838Z,67.60
2018-07-11T06:59:57.242Z,67.30
2018-07-11T07:02:01.710Z,67.30
2018-07-11T07:04:06.174Z,67.20
2018-07-11T07:06:10.690Z,66.60
2018-07-11T07:08:15.339Z,66.40
2018-07-11T07:14:29.155Z,65.80
2018-07-11T07:16:33.763Z,66.80
2018-07-11T07:18:38.228Z,66.20
2018-07-11T07:22:46.843Z,65.30
2018-07-11T07:24:51.474Z,65.50
2018-07-11T07:26:55.937Z,65.50
2018-07-11T07:31:05.181Z,64.70
2018-07-11T07:33:09.694Z,64.90
2018-07-11T07:35:16.993Z,64.90
2018-07-11T07:37:21.570Z,64.50
2018-07-11T07:39:26.046Z,64.20
2018-07-11T07:41:30.612Z,64.40
2018-07-11T07:43:35.925Z,64.30
2018-07-11T07:45:42.862Z,64.50
2018-07-11T07:47:48.096Z,64.80
2018-07-11T07:49:52.714Z,64.70
2018-07-11T07:51:57.547Z,64.60
2018-07-11T07:54:02.177Z,64.60
2018-07-11T07:58:11.245Z,63.80
2018-07-11T08:02:20.657Z,63.40
2018-07-11T08:04:25.172Z,63.00
2018-07-11T08:08:33.971Z,62.80
2018-07-11T08:10:40.837Z,62.60
2018-07-11T08:12:45.349Z,62.30
2018-07-11T08:14:49.806Z,62.00
2018-07-11T08:16:54.311Z,61.40
2018-07-11T08:18:58.762Z,61.00
2018-07-11T08:21:03.222Z,60.90
2018-07-11T08:23:26.603Z,61.00
2018-07-11T08:25:48.446Z,61.00
2018-07-11T08:28:06.018Z,60.50
2018-07-11T08:30:29.418Z,60.40
2018-07-11T08:34:58.031Z,60.30
2018-07-11T08:38:25.094Z,60.10
2018-07-11T08:40:44.879Z,59.70
2018-07-11T08:45:14.634Z,59.70
2018-07-11T08:47:54.001Z,59.90
2018-07-11T08:50:18.134Z,60.50
2018-07-11T08:53:45.361Z,60.70
2018-07-11T09:02:44.514Z,61.10
2018-07-11T09:05:24.766Z,61.10
2018-07-11T09:10:07.839Z,60.60
2018-07-11T09:16:10.702Z,60.70
2018-07-11T09:19:35.949Z,60.50
2018-07-11T09:22:33.238Z,61.00
2018-07-11T09:24:40.921Z,62.00
2018-07-11T09:26:45.491Z,60.30
2018-07-11T09:28:50.383Z,60.60
2018-07-11T09:30:54.913Z,60.60
2018-07-11T09:32:59.453Z,60.10
2018-07-11T09:35:04.018Z,60.00
2018-07-11T09:37:08.604Z,59.70
2018-07-11T09:39:13.221Z,59.30
2018-07-11T09:41:20.700Z,58.70
2018-07-11T09:43:25.434Z,58.30
2018-07-11T09:45:29.939Z,58.70
2018-07-11T09:47:34.574Z,59.20
2018-07-11T09:49:39.723Z,59.40
2018-07-11T09:51:44.232Z,59.50
2018-07-11T09:53:48.781Z,58.80
2018-07-11T09:55:53.331Z,58.50
2018-07-11T09:57:58.144Z,58.00
2018-07-11T10:00:02.744Z,58.00
2018-07-11T10:02:07.290Z,58.10
2018-07-11T10:04:14.601Z,58.20
2018-07-11T10:06:19.254Z,58.20
2018-07-11T10:08:24.614Z,57.60
2018-07-11T10:10:29.101Z,57.60
2018-07-11T10:12:33.815Z,57.30
2018-07-11T10:14:38.258Z,56.30
2018-07-11T10:16:42.747Z,56.20
2018-07-11T10:19:03.823Z,56.30
2018-07-11T10:21:08.274Z,56.10
2018-07-11T10:23:12.817Z,56.10
2018-07-11T10:25:17.303Z,55.30
2018-07-11T10:27:21.833Z,54.90
2018-07-11T10:29:26.465Z,54.60
2018-07-11T10:31:31.115Z,54.50
2018-07-11T10:33:35.621Z,54.40
2018-07-11T10:35:40.167Z,54.40
2018-07-11T10:37:44.927Z,53.60
2018-07-11T10:39:49.482Z,53.10
2018-07-11T10:41:53.988Z,52.80
2018-07-11T10:43:58.509Z,53.50
2018-07-11T10:46:03.027Z,53.40
2018-07-11T10:48:07.541Z,53.20
2018-07-11T10:50:12.142Z,53.30
2018-07-11T10:52:16.628Z,53.10
2018-07-11T10:54:21.254Z,53.00
2018-07-11T10:56:26.893Z,52.90
2018-07-11T10:58:31.397Z,52.20
2018-07-11T11:00:37.196Z,53.50
2018-07-11T11:04:44.718Z,51.70
2018-07-11T11:08:53.628Z,50.40
2018-07-11T11:10:58.176Z,50.20
2018-07-11T11:13:02.608Z,50.00
2018-07-11T11:15:07.248Z,50.00
2018-07-11T11:17:14.742Z,50.40
2018-07-11T11:19:23.295Z,50.00
2018-07-11T11:21:27.953Z,49.80
2018-07-11T11:23:32.398Z,49.70
2018-07-11T11:25:37.037Z,50.60
2018-07-11T11:27:47.237Z,50.10
2018-07-11T11:29:53.692Z,50.00
2018-07-11T11:31:58.727Z,50.20
2018-07-11T11:34:03.184Z,49.80
2018-07-11T11:36:07.759Z,50.80
2018-07-11T11:38:12.304Z,51.60
2018-07-11T11:40:16.865Z,50.40
2018-07-11T11:42:22.304Z,51.10
2018-07-11T11:44:26.671Z,51.80
2018-07-11T11:46:31.179Z,52.20
2018-07-11T11:48:35.811Z,52.20
2018-07-11T11:50:40.519Z,53.60
2018-07-11T11:52:46.248Z,53.20
2018-07-11T11:56:54.978Z,53.40
2018-07-11T11:58:59.398Z,53.40
2018-07-11T12:01:03.904Z,53.40
2018-07-11T12:03:09.823Z,53.70
2018-07-11T12:05:14.410Z,54.10
2018-07-11T12:07:19.070Z,54.00
2018-07-11T12:09:23.443Z,54.10
2018-07-11T12:11:27.959Z,54.30
2018-07-11T12:13:32.368Z,54.30
2018-07-11T12:15:36.901Z,54.30
2018-07-11T12:19:46.581Z,54.90
2018-07-11T12:21:51.056Z,54.90
2018-07-11T12:23:55.636Z,55.70
2018-07-11T12:26:10.170Z,55.30
2018-07-11T12:28:14.757Z,55.30
2018-07-11T12:30:19.247Z,55.70
2018-07-11T12:32:23.775Z,56.00
2018-07-11T12:34:28.850Z,56.00
2018-07-11T12:36:33.334Z,56.20
2018-07-11T12:38:37.810Z,56.60
2018-07-11T12:40:42.319Z,56.80
2018-07-11T12:44:51.040Z,56.90
2018-07-11T12:46:55.674Z,56.80
2018-07-11T12:49:06.525Z,57.40
2018-07-11T12:51:14.213Z,57.40
2018-07-11T12:53:18.879Z,57.60
2018-07-11T12:55:23.382Z,57.90
2018-07-11T12:57:28.057Z,57.70
2018-07-11T13:01:37.855Z,57.60
2018-07-11T13:03:42.443Z,56.20
2018-07-11T13:05:47.058Z,56.60
2018-07-11T13:07:51.597Z,56.80
2018-07-11T13:09:56.131Z,57.10
2018-07-11T13:12:00.962Z,57.40
2018-07-11T13:14:05.523Z,57.70
2018-07-11T13:16:10.139Z,58.30
2018-07-11T13:18:14.581Z,58.60
2018-07-11T13:20:19.039Z,58.80
2018-07-11T13:22:23.524Z,59.20
2018-07-11T13:24:28.058Z,59.40
2018-07-11T13:26:32.549Z,59.40
2018-07-11T13:28:37.100Z,59.30
2018-07-11T13:30:41.599Z,59.40
2018-07-11T13:32:46.167Z,59.40
2018-07-11T13:34:50.570Z,59.70
2018-07-11T13:38:59.386Z,61.00
2018-07-11T13:41:03.930Z,60.90
2018-07-11T13:43:09.079Z,60.90
2018-07-11T13:45:13.566Z,60.90
2018-07-11T13:47:23.240Z,60.90
2018-07-11T13:51:31.844Z,61.20
2018-07-11T13:53:36.353Z,61.50
2018-07-11T13:55:40.893Z,61.90
2018-07-11T13:57:45.982Z,62.20
2018-07-11T13:59:50.549Z,62.60
2018-07-11T14:01:55.143Z,63.20
2018-07-11T14:03:59.966Z,62.80
2018-07-11T14:06:12.205Z,62.80
2018-07-11T14:08:17.779Z,63.00
2018-07-11T14:10:25.306Z,63.20
2018-07-11T14:12:34.107Z,62.90
2018-07-11T14:14:40.378Z,63.00
2018-07-11T14:16:45.075Z,63.00
2018-07-11T14:18:50.871Z,63.10
2018-07-11T14:20:55.746Z,63.60
2018-07-11T14:23:07.623Z,63.90
2018-07-11T14:25:12.300Z,63.70
2018-07-11T14:27:16.910Z,63.70
2018-07-11T14:29:23.988Z,64.00
2018-07-11T14:31:32.060Z,63.70
2018-07-11T14:33:36.686Z,64.00
2018-07-11T14:35:41.273Z,64.00
2018-07-11T14:37:46.594Z,64.90
2018-07-11T14:39:51.108Z,64.40
2018-07-11T14:44:00.813Z,64.00
2018-07-11T14:46:06.022Z,65.00
2018-07-11T14:48:14.060Z,64.60
2018-07-11T14:50:18.830Z,64.80
2018-07-11T14:52:23.534Z,65.10
2018-07-11T14:54:28.131Z,65.30
2018-07-11T14:56:35.075Z,65.60
2018-07-11T14:58:39.661Z,65.80
2018-07-11T15:00:44.163Z,65.60
2018-07-11T15:02:48.747Z,65.60
2018-07-11T15:04:53.387Z,66.00
2018-07-11T15:06:57.999Z,65.90
2018-07-11T15:09:02.828Z,66.00
2018-07-11T15:11:08.923Z,66.10
2018-07-11T15:13:14.508Z,66.20
2018-07-11T15:15:19.070Z,66.00
2018-07-11T15:17:23.759Z,66.10
2018-07-11T15:19:28.342Z,66.20
2018-07-11T15:21:32.922Z,66.10
2018-07-11T15:23:38.286Z,66.00
2018-07-11T15:25:42.844Z,66.00
2018-07-11T15:27:47.451Z,67.00
2018-07-11T15:29:51.986Z,66.20
2018-07-11T15:31:56.525Z,66.10
2018-07-11T15:34:01.102Z,66.00
2018-07-11T15:36:05.594Z,66.20
2018-07-11T15:38:10.181Z,66.30
2018-07-11T15:40:15.311Z,66.40
2018-07-11T15:42:19.882Z,66.20
2018-07-11T15:46:29.395Z,66.50
2018-07-11T15:48:34.099Z,66.60
2018-07-11T15:50:38.924Z,66.90
2018-07-11T15:52:43.551Z,66.70
2018-07-11T15:54:48.176Z,66.50
2018-07-11T15:56:52.892Z,66.80
2018-07-11T15:59:09.392Z,66.70
2018-07-11T16:01:13.808Z,67.00
2018-07-11T16:03:19.538Z,67.20
2018-07-11T16:05:25.683Z,67.40
2018-07-11T16:09:49.387Z,67.60
2018-07-11T16:11:53.942Z,67.90
2018-07-11T16:13:58.771Z,68.00
2018-07-11T16:16:03.316Z,67.90
2018-07-11T16:18:08.910Z,68.10
2018-07-11T16:20:13.629Z,68.00
2018-07-11T16:22:20.017Z,67.70
2018-07-11T16:24:24.965Z,67.90
2018-07-11T16:26:30.233Z,67.90
2018-07-11T16:28:35.751Z,67.90
2018-07-11T16:30:40.311Z,67.70
2018-07-11T16:32:44.818Z,67.70
2018-07-11T16:34:49.409Z,67.80
2018-07-11T16:36:54.157Z,67.70
2018-07-11T16:38:59.102Z,67.80
2018-07-11T16:41:03.795Z,68.00
2018-07-11T16:43:08.296Z,68.00
2018-07-11T16:45:12.827Z,68.10
2018-07-11T16:47:17.725Z,68.20
2018-07-11T16:49:22.330Z,68.20
2018-07-11T16:51:26.915Z,68.20
2018-07-11T16:53:31.517Z,68.40
2018-07-11T16:55:38.024Z,68.40
2018-07-11T16:57:50.186Z,68.40
2018-07-11T17:00:07.314Z,68.50
2018-07-11T17:02:11.966Z,68.70
2018-07-11T17:04:16.548Z,68.80
2018-07-11T17:06:21.155Z,69.20
2018-07-11T17:08:36.681Z,69.20
2018-07-11T17:10:43.542Z,69.10
2018-07-11T17:12:54.438Z,69.20
2018-07-11T17:15:00.913Z,68.90
2018-07-11T17:17:06.174Z,68.30
2018-07-11T17:19:23.379Z,68.40
2018-07-11T17:21:41.204Z,68.30
2018-07-11T17:23:52.284Z,68.50
2018-07-11T17:25:56.895Z,68.80
2018-07-11T17:28:03.514Z,69.90
2018-07-11T17:30:07.973Z,69.20
2018-07-11T17:32:13.345Z,69.30
2018-07-11T17:34:18.178Z,69.30
2018-07-11T17:36:22.705Z,69.20
2018-07-11T17:38:31.252Z,69.20
2018-07-11T17:40:40.207Z,69.20
2018-07-11T17:42:45.831Z,69.30
2018-07-11T17:47:27.565Z,69.40
2018-07-11T17:52:04.082Z,69.20
2018-07-11T17:54:08.697Z,69.20
2018-07-11T17:56:14.597Z,69.00
2018-07-11T17:58:20.922Z,68.60
2018-07-11T18:00:49.734Z,68.70
2018-07-11T18:03:05.967Z,68.60
2018-07-11T18:05:25.841Z,68.70
2018-07-11T18:10:00.161Z,69.00
2018-07-11T18:12:22.216Z,68.90
2018-07-11T18:14:44.039Z,68.90
2018-07-11T18:17:04.336Z,69.00
2018-07-11T18:20:25.883Z,69.00
2018-07-11T18:22:57.665Z,69.00
2018-07-11T18:25:26.998Z,68.80
2018-07-11T18:31:02.937Z,68.90
2018-07-11T18:33:39.167Z,68.90
2018-07-11T18:36:10.674Z,68.60
2018-07-11T18:38:24.477Z,69.10
2018-07-11T18:40:38.380Z,69.30
2018-07-11T18:42:59.568Z,69.70
2018-07-11T18:45:17.564Z,69.70
2018-07-11T18:47:39.452Z,69.50
2018-07-11T18:52:33.290Z,69.70
2018-07-11T18:54:57.225Z,69.70
2018-07-11T18:57:09.792Z,69.30
2018-07-11T18:59:30.009Z,69.60
2018-07-11T19:01:49.118Z,69.60
2018-07-11T19:05:09.547Z,69.60
2018-07-11T19:07:34.304Z,69.90
2018-07-11T19:09:53.728Z,69.60
2018-07-11T19:13:04.618Z,69.80
2018-07-11T19:15:13.902Z,69.60
2018-07-11T19:17:28.536Z,69.70
2018-07-11T19:19:43.709Z,69.70
2018-07-11T19:21:58.619Z,70.70
2018-07-11T19:24:09.040Z,70.10
2018-07-11T19:26:28.501Z,70.20
2018-07-11T19:29:52.863Z,70.20
2018-07-11T19:32:10.271Z,70.10
2018-07-11T19:36:42.782Z,69.50
2018-07-11T19:39:12.266Z,69.60
2018-07-11T19:41:25.630Z,69.40
2018-07-11T19:47:04.432Z,69.80
2018-07-11T19:49:37.553Z,69.90
2018-07-11T19:54:00.542Z,72.60
2018-07-11T19:57:11.535Z,72.20
2018-07-11T19:59:16.266Z,71.80
2018-07-11T20:01:20.827Z,71.70
2018-07-11T20:03:25.544Z,72.70
2018-07-11T20:07:39.452Z,71.90
2018-07-11T20:09:44.906Z,72.10
2018-07-11T20:11:50.531Z,72.00
2018-07-11T20:13:55.482Z,71.80
2018-07-11T20:16:00.035Z,71.70
2018-07-11T20:18:05.282Z,71.70
2018-07-11T20:20:09.749Z,71.60
2018-07-11T20:24:19.784Z,71.60
2018-07-11T20:26:24.507Z,71.50
2018-07-11T20:28:29.062Z,71.40
2018-07-11T20:30:33.702Z,72.20
2018-07-11T20:32:38.533Z,71.30
2018-07-11T20:34:43.687Z,71.40
2018-07-11T20:36:48.762Z,71.40
2018-07-11T20:38:53.333Z,71.40
2018-07-11T20:40:57.829Z,71.40
2018-07-11T20:43:02.599Z,71.40
2018-07-11T20:45:07.255Z,71.30
2018-07-11T20:47:11.751Z,71.30
2018-07-11T20:49:21.804Z,71.20
2018-07-11T20:51:26.269Z,71.10
2018-07-11T20:53:30.737Z,71.20
2018-07-11T20:55:36.278Z,71.20
2018-07-11T20:57:40.938Z,71.20
2018-07-11T21:00:02.505Z,71.20
2018-07-11T21:02:24.163Z,71.20
2018-07-11T21:06:47.795Z,71.20
2018-07-11T21:11:13.920Z,71.20
2018-07-11T21:13:38.131Z,71.00
2018-07-11T21:16:58.320Z,71.00
2018-07-11T21:21:14.002Z,71.40
2018-07-11T21:23:18.545Z,71.50
2018-07-11T21:27:27.970Z,71.90
2018-07-11T21:29:32.486Z,71.50
2018-07-11T21:31:37.026Z,71.90
2018-07-11T21:33:41.502Z,72.00
2018-07-11T21:35:46.386Z,71.90
2018-07-11T21:37:51.114Z,71.80
2018-07-11T21:39:55.651Z,71.90
2018-07-11T21:42:00.599Z,72.00
2018-07-11T21:44:05.160Z,72.00
2018-07-11T21:46:09.626Z,72.00
2018-07-11T21:48:14.101Z,71.90
2018-07-11T21:50:18.638Z,71.80
2018-07-11T21:52:23.990Z,71.80
2018-07-11T21:54:28.438Z,71.70
2018-07-11T21:56:32.893Z,71.70
2018-07-11T21:58:37.470Z,71.70
2018-07-11T22:00:42.230Z,71.70
2018-07-11T22:02:46.621Z,71.80
2018-07-11T22:06:55.386Z,71.70
2018-07-11T22:08:59.849Z,71.80
2018-07-11T22:11:04.314Z,71.70
2018-07-11T22:13:09.466Z,71.60
2018-07-11T22:15:13.914Z,71.60
2018-07-11T22:17:31.490Z,71.50
2018-07-11T22:21:38.131Z,72.20
2018-07-11T22:25:44.983Z,71.70
2018-07-11T22:27:48.186Z,71.70
2018-07-11T22:29:50.898Z,71.70
2018-07-11T22:31:53.626Z,71.70
2018-07-11T22:33:56.432Z,71.70
2018-07-11T22:35:59.206Z,71.70
2018-07-11T22:40:06.153Z,72.70
2018-07-11T22:42:08.859Z,71.90
2018-07-11T22:44:11.610Z,71.80
2018-07-11T22:46:14.314Z,71.90
2018-07-11T22:48:17.090Z,71.90
2018-07-11T22:50:19.790Z,71.90
2018-07-11T22:52:22.815Z,71.90
2018-07-11T22:54:25.583Z,72.00
2018-07-11T22:56:28.306Z,72.00
2018-07-11T22:58:31.066Z,71.70
2018-07-11T23:00:33.790Z,71.80
2018-07-11T23:02:36.521Z,71.60
2018-07-11T23:04:39.318Z,71.60
2018-07-11T23:06:42.969Z,71.60
2018-07-11T23:08:45.710Z,71.60
2018-07-11T23:10:48.441Z,71.60
2018-07-11T23:12:51.170Z,71.60
2018-07-11T23:14:53.954Z,71.40
2018-07-11T23:16:57.662Z,71.40
2018-07-11T23:19:00.407Z,71.40
2018-07-11T23:21:03.130Z,71.30
2018-07-11T23:23:05.843Z,71.40
2018-07-11T23:25:08.590Z,71.20
2018-07-11T23:27:11.656Z,71.20
2018-07-11T23:29:14.427Z,71.20
2018-07-11T23:31:17.138Z,71.10
2018-07-11T23:33:19.866Z,71.20
2018-07-11T23:35:23.253Z,71.30
2018-07-11T23:37:25.997Z,71.30
2018-07-11T23:39:28.747Z,71.10
2018-07-11T23:41:31.472Z,71.30
2018-07-11T23:43:34.196Z,71.30
2018-07-11T23:45:36.938Z,71.10
2018-07-11T23:47:39.662Z,71.60
2018-07-11T23:49:43.365Z,71.30
2018-07-11T23:51:46.104Z,72.20
2018-07-11T23:53:49.226Z,71.40
2018-07-11T23:55:53.762Z,71.40
2018-07-11T23:57:56.483Z,71.40
2018-07-11T23:59:59.227Z,71.30
